createdAt,value
2019-05-05T00:00:32.139Z,14.20
2019-05-05T00:01:34.292Z,14.11
2019-05-05T00:02:34.143Z,14.01
2019-05-05T00:03:31.830Z,13.72
2019-05-05T00:04:31.730Z,13.54
2019-05-05T00:05:31.628Z,13.64
2019-05-05T00:06:31.531Z,13.72
2019-05-05T00:07:31.428Z,14.01
2019-05-05T00:08:31.340Z,13.92
2019-05-05T00:09:31.227Z,14.11
2019-05-05T00:10:31.123Z,13.91
2019-05-05T00:11:31.028Z,13.82
2019-05-05T00:12:30.922Z,14.10
2019-05-05T00:13:30.836Z,14.10
2019-05-05T00:14:30.717Z,14.20
2019-05-05T00:15:30.621Z,14.76
2019-05-05T00:16:30.516Z,14.76
2019-05-05T00:17:30.420Z,14.86
2019-05-05T00:18:30.329Z,14.58
2019-05-05T00:19:33.253Z,14.95
2019-05-05T00:20:30.112Z,14.95
2019-05-05T00:21:30.011Z,14.86
2019-05-05T00:22:29.907Z,15.05
2019-05-05T00:23:29.824Z,14.86
2019-05-05T00:24:29.705Z,14.76
2019-05-05T00:25:29.605Z,14.48
2019-05-05T00:26:29.502Z,14.67
2019-05-05T00:27:29.405Z,14.76
2019-05-05T00:28:29.318Z,14.86
2019-05-05T00:29:29.197Z,15.14
2019-05-05T00:30:29.098Z,15.61
2019-05-05T00:31:28.996Z,15.99
2019-05-05T00:32:28.897Z,15.61
2019-05-05T00:33:28.797Z,15.42
2019-05-05T00:34:28.706Z,15.80
2019-05-05T00:35:28.591Z,15.52
2019-05-05T00:36:28.490Z,14.95
2019-05-05T00:37:28.388Z,14.95
2019-05-05T00:38:28.287Z,14.86
2019-05-05T00:39:28.200Z,14.48
2019-05-05T00:40:28.083Z,14.58
2019-05-05T00:41:27.984Z,14.01
2019-05-05T00:42:27.882Z,14.20
2019-05-05T00:43:27.783Z,14.39
2019-05-05T00:44:27.694Z,14.48
2019-05-05T00:45:27.578Z,14.48
2019-05-05T00:46:27.476Z,14.76
2019-05-05T00:47:27.374Z,14.76
2019-05-05T00:48:27.273Z,14.48
2019-05-05T00:49:27.186Z,14.86
2019-05-05T00:50:27.069Z,15.05
2019-05-05T00:51:26.968Z,15.52
2019-05-05T00:52:26.867Z,15.61
2019-05-05T00:53:26.767Z,15.71
2019-05-05T00:54:26.680Z,16.09
2019-05-05T00:55:26.564Z,15.80
2019-05-05T00:56:26.461Z,15.80
2019-05-05T00:57:26.381Z,15.80
2019-05-05T00:58:26.260Z,16.28
2019-05-05T00:59:26.173Z,16.28
2019-05-05T01:00:26.056Z,16.85
2019-05-05T01:01:26.055Z,17.22
2019-05-05T01:02:25.852Z,17.14
2019-05-05T01:03:25.752Z,17.71
2019-05-05T01:04:25.669Z,17.60
2019-05-05T01:05:25.551Z,18.36
2019-05-05T01:06:25.610Z,20.25
2019-05-05T01:07:25.351Z,21.95
2019-05-05T01:08:25.356Z,23.38
2019-05-05T01:09:25.267Z,23.77
2019-05-05T01:10:25.043Z,24.52
2019-05-05T01:11:25.214Z,24.61
2019-05-05T01:12:24.847Z,25.00
2019-05-05T01:13:24.748Z,26.69
2019-05-05T01:14:25.017Z,27.46
2019-05-05T01:15:25.442Z,28.86
2019-05-05T01:16:24.842Z,30.11
2019-05-05T01:17:25.280Z,31.23
2019-05-05T01:18:24.602Z,31.23
2019-05-05T01:19:24.379Z,31.61
2019-05-05T01:20:25.006Z,31.72
2019-05-05T01:21:24.509Z,32.29
2019-05-05T01:22:25.007Z,31.99
2019-05-05T01:23:24.386Z,31.34
2019-05-05T01:24:24.870Z,31.34
2019-05-05T01:25:25.333Z,31.91
2019-05-05T01:26:24.886Z,31.42
2019-05-05T01:27:25.222Z,31.34
2019-05-05T01:28:24.967Z,30.68
2019-05-05T01:29:25.130Z,30.40
2019-05-05T01:30:24.499Z,30.85
2019-05-05T01:31:25.126Z,32.01
2019-05-05T01:32:24.641Z,32.09
2019-05-05T01:33:22.713Z,32.67
2019-05-05T01:34:24.367Z,33.04
2019-05-05T01:35:22.522Z,33.71
2019-05-05T01:36:24.179Z,34.26
2019-05-05T01:37:22.307Z,34.26
2019-05-05T01:38:22.205Z,34.17
2019-05-05T01:39:22.104Z,33.98
2019-05-05T01:40:22.016Z,34.26
2019-05-05T01:41:21.909Z,34.45
2019-05-05T01:42:21.798Z,34.47
2019-05-05T01:43:21.811Z,34.09
2019-05-05T01:44:21.595Z,33.41
2019-05-05T01:45:21.511Z,33.43
2019-05-05T01:46:21.390Z,33.04
2019-05-05T01:47:21.290Z,33.04
2019-05-05T01:48:21.190Z,32.48
2019-05-05T01:49:21.089Z,32.95
2019-05-05T01:50:21.570Z,32.20
2019-05-05T01:51:20.885Z,32.39
2019-05-05T01:52:20.785Z,31.33
2019-05-05T01:53:20.682Z,31.15
2019-05-05T01:54:20.582Z,31.14
2019-05-05T01:55:20.497Z,31.06
2019-05-05T01:56:20.380Z,31.80
2019-05-05T01:57:20.381Z,31.52
2019-05-05T01:58:20.177Z,31.06
2019-05-05T01:59:20.073Z,30.57
2019-05-05T02:00:19.988Z,30.87
2019-05-05T02:01:19.871Z,30.30
2019-05-05T02:02:20.503Z,30.10
2019-05-05T02:03:19.666Z,30.10
2019-05-05T02:04:19.566Z,30.10
2019-05-05T02:05:19.480Z,30.47
2019-05-05T02:06:19.370Z,30.57
2019-05-05T02:07:19.263Z,31.23
2019-05-05T02:08:19.162Z,30.29
2019-05-05T02:09:19.060Z,30.00
2019-05-05T02:10:18.975Z,30.10
2019-05-05T02:11:18.855Z,30.19
2019-05-05T02:12:18.758Z,30.38
2019-05-05T02:13:18.653Z,30.29
2019-05-05T02:14:18.552Z,29.62
2019-05-05T02:15:18.467Z,29.72
2019-05-05T02:16:18.350Z,29.62
2019-05-05T02:17:18.255Z,30.95
2019-05-05T02:18:18.149Z,30.66
2019-05-05T02:19:18.045Z,30.66
2019-05-05T02:20:28.620Z,31.23
2019-05-05T02:21:17.844Z,31.61
2019-05-05T02:22:17.739Z,31.52
2019-05-05T02:23:17.639Z,31.90
2019-05-05T02:24:17.538Z,31.71
2019-05-05T02:25:17.438Z,31.33
2019-05-05T02:26:17.348Z,31.71
2019-05-05T02:27:19.715Z,31.52
2019-05-05T02:28:17.130Z,30.57
2019-05-05T02:29:17.030Z,31.14
2019-05-05T02:30:16.929Z,31.90
2019-05-05T02:31:16.891Z,31.90
2019-05-05T02:32:16.727Z,31.52
2019-05-05T02:33:16.626Z,31.80
2019-05-05T02:34:16.628Z,31.80
2019-05-05T02:35:16.782Z,31.80
2019-05-05T02:36:16.337Z,31.99
2019-05-05T02:37:16.290Z,32.28
2019-05-05T02:38:16.118Z,32.75
2019-05-05T02:39:16.230Z,31.42
2019-05-05T02:40:16.195Z,31.61
2019-05-05T02:41:15.829Z,31.90
2019-05-05T02:42:15.713Z,31.52
2019-05-05T02:43:15.672Z,31.99
2019-05-05T02:44:15.723Z,32.09
2019-05-05T02:45:15.689Z,32.75
2019-05-05T02:46:15.319Z,32.37
2019-05-05T02:47:15.695Z,31.61
2019-05-05T02:48:15.579Z,32.56
2019-05-05T02:49:15.349Z,32.56
2019-05-05T02:50:15.603Z,32.75
2019-05-05T02:51:15.373Z,32.37
2019-05-05T02:52:15.203Z,32.28
2019-05-05T02:53:14.596Z,32.46
2019-05-05T02:54:14.491Z,33.12
2019-05-05T02:55:14.717Z,33.98
2019-05-05T02:56:14.644Z,34.74
2019-05-05T02:57:14.196Z,35.21
2019-05-05T02:58:14.094Z,35.87
2019-05-05T02:59:14.727Z,36.54
2019-05-05T03:00:13.881Z,37.01
2019-05-05T03:01:14.043Z,38.14
2019-05-05T03:02:14.463Z,38.14
2019-05-05T03:03:13.577Z,37.86
2019-05-05T03:04:14.092Z,37.95
2019-05-05T03:05:14.285Z,38.33
2019-05-05T03:06:14.503Z,39.00
2019-05-05T03:07:13.768Z,39.18
2019-05-05T03:08:13.907Z,39.09
2019-05-05T03:09:13.782Z,39.84
2019-05-05T03:10:14.118Z,39.56
2019-05-05T03:11:14.476Z,39.28
2019-05-05T03:12:14.782Z,39.75
2019-05-05T03:13:13.902Z,39.56
2019-05-05T03:14:14.259Z,40.03
2019-05-05T03:15:14.222Z,40.22
2019-05-05T03:16:13.721Z,39.56
2019-05-05T03:17:14.112Z,40.89
2019-05-05T03:18:13.441Z,41.08
2019-05-05T03:19:14.103Z,40.51
2019-05-05T03:20:11.953Z,40.70
2019-05-05T03:21:13.915Z,41.46
2019-05-05T03:22:11.666Z,41.36
2019-05-05T03:23:13.546Z,41.08
2019-05-05T03:24:11.443Z,40.22
2019-05-05T03:25:13.490Z,39.84
2019-05-05T03:26:11.241Z,39.75
2019-05-05T03:27:11.153Z,39.65
2019-05-05T03:28:11.043Z,39.09
2019-05-05T03:29:10.940Z,39.56
2019-05-05T03:30:10.836Z,38.90
2019-05-05T03:31:10.736Z,39.37
2019-05-05T03:32:11.621Z,38.90
2019-05-05T03:33:10.533Z,38.05
2019-05-05T03:34:10.540Z,38.52
2019-05-05T03:35:10.326Z,39.00
2019-05-05T03:36:10.230Z,38.90
2019-05-05T03:37:10.154Z,38.33
2019-05-05T03:38:10.024Z,37.86
2019-05-05T03:39:09.922Z,37.95
2019-05-05T03:40:09.820Z,39.09
2019-05-05T03:41:09.823Z,39.18
2019-05-05T03:42:09.631Z,38.81
2019-05-05T03:43:09.518Z,39.00
2019-05-05T03:44:09.415Z,39.47
2019-05-05T03:45:09.316Z,39.00
2019-05-05T03:46:09.214Z,38.33
2019-05-05T03:47:09.126Z,37.76
2019-05-05T03:48:09.119Z,37.19
2019-05-05T03:49:08.905Z,37.48
2019-05-05T03:50:08.807Z,37.01
2019-05-05T03:51:18.099Z,37.19
2019-05-05T03:52:08.620Z,37.29
2019-05-05T03:53:08.501Z,36.82
2019-05-05T03:54:08.401Z,37.67
2019-05-05T03:55:08.401Z,39.18
2019-05-05T03:56:08.198Z,39.84
2019-05-05T03:57:08.098Z,39.65
2019-05-05T03:58:08.006Z,39.28
2019-05-05T03:59:07.891Z,39.47
2019-05-05T04:00:07.802Z,39.28
2019-05-05T04:01:07.689Z,39.18
2019-05-05T04:02:07.587Z,39.56
2019-05-05T04:03:07.712Z,40.79
2019-05-05T04:04:07.384Z,40.89
2019-05-05T04:05:07.291Z,41.46
2019-05-05T04:06:07.179Z,42.02
2019-05-05T04:07:07.081Z,42.88
2019-05-05T04:08:06.994Z,42.97
2019-05-05T04:09:06.877Z,42.97
2019-05-05T04:10:06.878Z,42.30
2019-05-05T04:11:06.671Z,42.11
2019-05-05T04:12:06.568Z,42.78
2019-05-05T04:13:06.483Z,43.26
2019-05-05T04:14:06.367Z,42.59
2019-05-05T04:15:06.264Z,42.11
2019-05-05T04:16:06.162Z,41.83
2019-05-05T04:17:06.166Z,41.27
2019-05-05T04:18:05.974Z,41.64
2019-05-05T04:19:05.858Z,41.64
2019-05-05T04:20:05.760Z,41.46
2019-05-05T04:21:05.656Z,41.55
2019-05-05T04:22:05.551Z,42.59
2019-05-05T04:23:05.464Z,42.02
2019-05-05T04:24:05.459Z,41.55
2019-05-05T04:25:05.247Z,41.46
2019-05-05T04:26:05.145Z,41.27
2019-05-05T04:27:05.047Z,41.55
2019-05-05T04:28:04.965Z,41.36
2019-05-05T04:29:05.473Z,41.46
2019-05-05T04:30:04.737Z,41.64
2019-05-05T04:31:04.738Z,41.46
2019-05-05T04:32:04.762Z,41.36
2019-05-05T04:33:04.450Z,41.17
2019-05-05T04:34:04.347Z,41.17
2019-05-05T04:35:04.228Z,40.98
2019-05-05T04:36:04.127Z,40.98
2019-05-05T04:37:04.290Z,40.60
2019-05-05T04:38:04.737Z,40.60
2019-05-05T04:39:03.875Z,41.17
2019-05-05T04:40:04.204Z,41.17
2019-05-05T04:41:03.634Z,40.98
2019-05-05T04:42:04.792Z,41.27
2019-05-05T04:43:04.012Z,40.98
2019-05-05T04:44:04.071Z,41.08
2019-05-05T04:45:04.221Z,41.08
2019-05-05T04:46:04.554Z,41.08
2019-05-05T04:47:03.893Z,41.46
2019-05-05T04:48:04.316Z,41.74
2019-05-05T04:49:03.567Z,41.27
2019-05-05T04:50:04.343Z,41.17
2019-05-05T04:51:04.661Z,41.64
2019-05-05T04:52:04.146Z,42.02
2019-05-05T04:53:04.420Z,41.46
2019-05-05T04:54:03.798Z,41.46
2019-05-05T04:55:03.854Z,42.78
2019-05-05T04:56:04.060Z,42.97
2019-05-05T04:57:01.994Z,42.69
2019-05-05T04:58:01.884Z,43.44
2019-05-05T04:59:03.865Z,44.10
2019-05-05T05:00:01.680Z,44.48
2019-05-05T05:01:01.584Z,44.77
2019-05-05T05:02:01.476Z,44.77
2019-05-05T05:03:01.377Z,45.05
2019-05-05T05:04:01.289Z,44.58
2019-05-05T05:05:01.271Z,44.86
2019-05-05T05:06:01.065Z,44.86
2019-05-05T05:07:00.967Z,44.58
2019-05-05T05:08:00.863Z,44.86
2019-05-05T05:09:00.779Z,44.86
2019-05-05T05:10:00.674Z,44.86
2019-05-05T05:11:00.561Z,45.15
2019-05-05T05:12:00.454Z,45.72
2019-05-05T05:13:00.355Z,45.90
2019-05-05T05:14:00.269Z,46.28
2019-05-05T05:15:00.157Z,46.56
2019-05-05T05:16:00.049Z,46.75
2019-05-05T05:16:59.948Z,47.13
2019-05-05T05:17:59.846Z,47.23
2019-05-05T05:18:59.760Z,47.23
2019-05-05T05:19:59.645Z,47.04
2019-05-05T05:20:59.541Z,47.51
2019-05-05T05:22:02.209Z,47.32
2019-05-05T05:22:59.338Z,46.94
2019-05-05T05:23:59.251Z,47.89
2019-05-05T05:24:59.133Z,47.42
2019-05-05T05:25:59.030Z,46.85
2019-05-05T05:26:58.934Z,46.85
2019-05-05T05:27:58.830Z,47.80
2019-05-05T05:28:58.729Z,46.37
2019-05-05T05:29:58.638Z,47.42
2019-05-05T05:30:58.521Z,48.74
2019-05-05T05:31:58.421Z,49.03
2019-05-05T05:32:58.320Z,48.27
2019-05-05T05:33:58.220Z,49.03
2019-05-05T05:34:58.133Z,49.22
2019-05-05T05:35:58.014Z,49.03
2019-05-05T05:36:57.913Z,49.22
2019-05-05T05:37:57.884Z,49.24
2019-05-05T05:38:57.708Z,50.35
2019-05-05T05:39:57.621Z,50.38
2019-05-05T05:40:57.510Z,49.33
2019-05-05T05:41:57.403Z,49.24
2019-05-05T05:42:57.301Z,50.00
2019-05-05T05:43:57.200Z,49.79
2019-05-05T05:44:57.116Z,50.28
2019-05-05T05:45:56.999Z,51.04
2019-05-05T05:46:56.897Z,51.61
2019-05-05T05:47:56.798Z,52.25
2019-05-05T05:48:56.695Z,52.91
2019-05-05T05:49:56.610Z,51.89
2019-05-05T05:50:56.492Z,52.75
2019-05-05T05:51:56.390Z,52.25
2019-05-05T05:52:56.296Z,52.94
2019-05-05T05:53:56.187Z,53.38
2019-05-05T05:54:56.098Z,54.42
2019-05-05T05:55:55.984Z,53.47
2019-05-05T05:56:55.895Z,54.16
2019-05-05T05:57:55.779Z,54.71
2019-05-05T05:58:55.679Z,54.83
2019-05-05T05:59:55.583Z,54.71
2019-05-05T06:00:55.490Z,56.22
2019-05-05T06:02:08.386Z,55.75
2019-05-05T06:02:55.275Z,55.94
2019-05-05T06:03:55.172Z,57.20
2019-05-05T06:04:55.072Z,57.10
2019-05-05T06:05:54.983Z,57.26
2019-05-05T06:06:54.881Z,58.33
2019-05-05T06:07:54.877Z,58.05
2019-05-05T06:08:54.664Z,58.52
2019-05-05T06:09:54.565Z,60.32
2019-05-05T06:10:54.809Z,60.41
2019-05-05T06:11:54.363Z,61.27
2019-05-05T06:12:54.785Z,61.65
2019-05-05T06:13:54.491Z,60.80
2019-05-05T06:14:54.056Z,61.36
2019-05-05T06:15:53.968Z,61.93
2019-05-05T06:16:54.057Z,61.93
2019-05-05T06:17:54.011Z,61.93
2019-05-05T06:18:54.247Z,61.83
2019-05-05T06:19:53.570Z,62.88
2019-05-05T06:20:53.862Z,64.39
2019-05-05T06:21:54.289Z,64.20
2019-05-05T06:22:53.644Z,64.58
2019-05-05T06:23:53.820Z,64.20
2019-05-05T06:24:54.083Z,65.15
2019-05-05T06:25:55.228Z,65.44
2019-05-05T06:26:54.726Z,65.72
2019-05-05T06:27:53.983Z,66.67
2019-05-05T06:28:54.073Z,67.24
2019-05-05T06:29:54.258Z,67.52
2019-05-05T06:30:54.428Z,67.05
2019-05-05T06:31:53.776Z,66.86
2019-05-05T06:32:54.453Z,65.91
2019-05-05T06:33:54.217Z,67.52
2019-05-05T06:34:53.456Z,67.52
2019-05-05T06:35:53.565Z,67.99
2019-05-05T06:36:53.641Z,67.05
2019-05-05T06:37:53.960Z,68.40
2019-05-05T06:38:51.627Z,67.93
2019-05-05T06:39:51.525Z,68.02
2019-05-05T06:40:51.424Z,68.98
2019-05-05T06:41:51.337Z,68.79
2019-05-05T06:42:51.329Z,70.01
2019-05-05T06:43:51.129Z,68.88
2019-05-05T06:44:51.019Z,68.98
2019-05-05T06:45:50.922Z,69.82
2019-05-05T06:46:50.832Z,70.01
2019-05-05T06:47:50.717Z,71.15
2019-05-05T06:48:50.616Z,70.58
2019-05-05T06:49:50.621Z,71.06
2019-05-05T06:50:50.417Z,71.53
2019-05-05T06:51:50.331Z,71.06
2019-05-05T06:52:50.213Z,71.34
2019-05-05T06:53:50.113Z,71.44
2019-05-05T06:54:50.012Z,71.81
2019-05-05T06:55:51.806Z,71.91
2019-05-05T06:56:49.931Z,71.91
2019-05-05T06:57:49.710Z,71.91
2019-05-05T06:58:49.613Z,72.57
2019-05-05T06:59:49.517Z,72.10
2019-05-05T07:00:49.410Z,73.43
2019-05-05T07:01:49.326Z,72.77
2019-05-05T07:02:49.210Z,73.24
2019-05-05T07:03:49.212Z,73.33
2019-05-05T07:04:49.014Z,73.33
2019-05-05T07:05:48.909Z,73.56
2019-05-05T07:06:54.102Z,72.42
2019-05-05T07:07:48.709Z,73.56
2019-05-05T07:08:48.613Z,74.98
2019-05-05T07:09:48.561Z,76.68
2019-05-05T07:10:48.513Z,75.49
2019-05-05T07:11:48.327Z,75.31
2019-05-05T07:12:48.210Z,75.40
2019-05-05T07:13:48.111Z,75.40
2019-05-05T07:14:48.009Z,75.43
2019-05-05T07:15:47.911Z,76.95
2019-05-05T07:16:47.828Z,80.94
2019-05-05T07:17:47.711Z,79.23
2019-05-05T07:18:47.612Z,79.90
2019-05-05T07:19:47.515Z,78.38
2019-05-05T07:20:47.414Z,81.70
2019-05-05T07:21:47.318Z,80.80
2019-05-05T07:22:58.732Z,81.56
2019-05-05T07:23:47.118Z,81.27
2019-05-05T07:24:47.128Z,80.90
2019-05-05T07:25:46.922Z,80.24
2019-05-05T07:26:46.827Z,81.47
2019-05-05T07:27:46.737Z,79.85
2019-05-05T07:28:46.625Z,80.80
2019-05-05T07:29:46.527Z,80.71
2019-05-05T07:30:46.572Z,80.04
2019-05-05T07:31:46.333Z,80.99
2019-05-05T07:32:46.258Z,80.99
2019-05-05T07:33:46.134Z,81.27
2019-05-05T07:34:46.037Z,80.52
2019-05-05T07:35:56.050Z,80.65
2019-05-05T07:36:45.838Z,81.41
2019-05-05T07:37:45.754Z,82.17
2019-05-05T07:38:45.644Z,82.36
2019-05-05T07:39:45.548Z,82.93
2019-05-05T07:40:45.445Z,81.79
2019-05-05T07:41:45.344Z,82.93
2019-05-05T07:42:45.271Z,82.93
2019-05-05T07:43:45.150Z,82.74
2019-05-05T07:44:45.054Z,82.36
2019-05-05T07:45:44.953Z,83.59
2019-05-05T07:46:44.855Z,82.74
2019-05-05T07:47:47.266Z,83.22
2019-05-05T07:48:44.659Z,84.07
2019-05-05T07:49:44.567Z,82.17
2019-05-05T07:50:58.115Z,82.84
2019-05-05T07:51:44.518Z,83.31
2019-05-05T07:52:44.287Z,84.45
2019-05-05T07:53:44.438Z,83.36
2019-05-05T07:54:44.073Z,83.64
2019-05-05T07:55:43.975Z,87.34
2019-05-05T07:56:44.529Z,85.35
2019-05-05T07:57:43.781Z,86.15
2019-05-05T07:58:43.942Z,86.24
2019-05-05T07:59:44.984Z,90.00
2019-05-05T08:00:43.780Z,92.75
2019-05-05T08:01:46.410Z,91.04
2019-05-05T08:02:43.917Z,90.75
2019-05-05T08:03:44.571Z,91.71
2019-05-05T08:04:43.755Z,91.13
2019-05-05T08:05:44.216Z,91.89
2019-05-05T08:06:44.522Z,91.38
2019-05-05T08:07:44.696Z,90.61
2019-05-05T08:08:44.309Z,92.32
2019-05-05T08:09:44.449Z,92.99
2019-05-05T08:10:43.718Z,91.24
2019-05-05T08:11:43.561Z,91.99
2019-05-05T08:12:43.668Z,91.71
2019-05-05T08:13:44.142Z,91.33
2019-05-05T08:14:44.248Z,90.95
2019-05-05T08:15:55.994Z,92.33
2019-05-05T08:16:44.065Z,92.23
2019-05-05T08:17:41.849Z,90.95
2019-05-05T08:18:43.743Z,91.89
2019-05-05T08:19:43.377Z,90.66
2019-05-05T08:20:41.560Z,91.47
2019-05-05T08:21:43.614Z,91.19
2019-05-05T08:22:41.368Z,90.80
2019-05-05T08:23:41.289Z,94.70
2019-05-05T08:24:41.176Z,93.37
2019-05-05T08:25:41.077Z,93.04
2019-05-05T08:26:41.016Z,91.66
2019-05-05T08:27:40.906Z,93.98
2019-05-05T08:28:40.807Z,97.17
2019-05-05T08:29:40.708Z,95.08
2019-05-05T08:30:40.601Z,94.65
2019-05-05T08:31:40.504Z,97.70
2019-05-05T08:32:40.410Z,96.46
2019-05-05T08:33:40.328Z,97.17
2019-05-05T08:34:53.936Z,98.17
2019-05-05T08:35:40.124Z,99.07
2019-05-05T08:36:40.032Z,99.64
2019-05-05T08:37:39.931Z,99.97
2019-05-05T08:38:39.841Z,99.99
2019-05-05T08:39:39.758Z,99.99
2019-05-05T08:40:39.650Z,99.99
2019-05-05T08:41:39.555Z,99.99
2019-05-05T08:42:39.462Z,99.59
2019-05-05T08:43:39.371Z,99.99
2019-05-05T08:44:39.288Z,99.55
2019-05-05T08:45:39.177Z,99.99
2019-05-05T08:46:39.081Z,99.99
2019-05-05T08:47:38.989Z,98.26
2019-05-05T08:48:38.895Z,98.07
2019-05-05T08:49:38.814Z,99.16
2019-05-05T08:50:38.706Z,97.97
2019-05-05T08:51:38.611Z,98.41
2019-05-05T08:52:38.514Z,98.74
2019-05-05T08:53:44.895Z,98.26
2019-05-05T08:54:38.450Z,97.50
2019-05-05T08:55:38.234Z,97.12
2019-05-05T08:56:38.138Z,97.41
2019-05-05T08:57:38.041Z,98.64
2019-05-05T08:58:37.949Z,98.59
2019-05-05T08:59:37.867Z,99.78
2019-05-05T09:00:37.760Z,99.69
2019-05-05T09:01:37.775Z,98.60
2019-05-05T09:02:37.569Z,98.17
2019-05-05T09:03:37.474Z,98.50
2019-05-05T09:04:37.396Z,98.64
2019-05-05T09:05:37.284Z,99.64
2019-05-05T09:06:37.827Z,98.26
2019-05-05T09:07:37.094Z,97.22
2019-05-05T09:08:37.105Z,96.74
2019-05-05T09:09:36.920Z,98.36
2019-05-05T09:10:36.809Z,98.45
2019-05-05T09:11:36.716Z,98.41
2019-05-05T09:12:36.623Z,97.08
2019-05-05T09:13:36.525Z,94.51
2019-05-05T09:14:36.434Z,94.70
2019-05-05T09:15:37.671Z,95.65
2019-05-05T09:16:36.241Z,96.94
2019-05-05T09:17:36.151Z,97.17
2019-05-05T09:18:36.058Z,94.22
2019-05-05T09:19:35.958Z,94.46
2019-05-05T09:20:35.878Z,93.27
2019-05-05T09:21:35.779Z,91.31
2019-05-05T09:22:35.673Z,91.08
2019-05-05T09:23:35.580Z,91.27
2019-05-05T09:24:35.487Z,94.13
2019-05-05T09:25:35.405Z,94.56
2019-05-05T09:26:35.298Z,95.32
2019-05-05T09:27:35.206Z,94.98
2019-05-05T09:28:35.110Z,96.74
2019-05-05T09:29:35.016Z,97.60
2019-05-05T09:30:35.341Z,98.12
2019-05-05T09:31:34.830Z,99.21
2019-05-05T09:32:34.735Z,99.99
2019-05-05T09:33:34.641Z,99.99
2019-05-05T09:34:34.546Z,98.93
2019-05-05T09:35:34.473Z,99.16
2019-05-05T09:36:34.836Z,98.31
2019-05-05T09:37:34.368Z,99.54
2019-05-05T09:38:34.746Z,99.16
2019-05-05T09:39:34.621Z,98.12
2019-05-05T09:40:33.993Z,98.21
2019-05-05T09:41:34.034Z,97.12
2019-05-05T09:42:34.242Z,96.69
2019-05-05T09:43:34.484Z,97.36
2019-05-05T09:44:34.635Z,96.94
2019-05-05T09:45:33.686Z,94.56
2019-05-05T09:46:34.040Z,91.13
2019-05-05T09:47:34.392Z,89.23
2019-05-05T09:48:33.646Z,91.22
2019-05-05T09:49:33.849Z,93.13
2019-05-05T09:50:34.142Z,95.60
2019-05-05T09:51:34.685Z,96.50
2019-05-05T09:52:33.779Z,97.74
2019-05-05T09:53:34.480Z,96.89
2019-05-05T09:54:34.592Z,97.27
2019-05-05T09:55:33.556Z,97.41
2019-05-05T09:56:33.898Z,96.93
2019-05-05T09:57:34.236Z,97.22
2019-05-05T09:58:34.589Z,98.36
2019-05-05T09:59:34.458Z,98.07
2019-05-05T10:00:33.633Z,98.26
2019-05-05T10:01:33.859Z,97.50
2019-05-05T10:02:31.895Z,95.75
2019-05-05T10:03:33.953Z,92.85
2019-05-05T10:04:31.702Z,90.70
2019-05-05T10:05:31.723Z,93.27
2019-05-05T10:06:33.631Z,93.70
2019-05-05T10:07:31.419Z,93.13
2019-05-05T10:08:31.321Z,90.75
2019-05-05T10:09:31.227Z,91.84
2019-05-05T10:10:31.138Z,89.65
2019-05-05T10:11:31.050Z,90.03
2019-05-05T10:12:31.045Z,89.08
2019-05-05T10:13:30.848Z,89.47
2019-05-05T10:14:30.751Z,90.13
2019-05-05T10:15:30.661Z,90.56
2019-05-05T10:16:30.581Z,89.41
2019-05-05T10:17:30.480Z,89.27
2019-05-05T10:18:30.377Z,90.99
2019-05-05T10:19:30.281Z,90.03
2019-05-05T10:20:30.190Z,90.61
2019-05-05T10:21:30.107Z,88.32
2019-05-05T10:22:29.999Z,88.75
2019-05-05T10:23:29.905Z,89.98
2019-05-05T10:24:31.100Z,89.75
2019-05-05T10:25:29.720Z,88.45
2019-05-05T10:26:29.638Z,86.93
2019-05-05T10:27:42.602Z,84.40
2019-05-05T10:28:29.439Z,85.69
2019-05-05T10:29:29.360Z,85.69
2019-05-05T10:30:29.251Z,85.60
2019-05-05T10:31:29.174Z,87.54
2019-05-05T10:32:29.067Z,85.31
2019-05-05T10:33:28.973Z,84.07
2019-05-05T10:34:28.883Z,85.93
2019-05-05T10:35:28.790Z,90.50
2019-05-05T10:36:28.719Z,90.65
2019-05-05T10:37:28.605Z,87.51
2019-05-05T10:38:28.512Z,87.94
2019-05-05T10:39:28.442Z,91.22
2019-05-05T10:40:28.329Z,93.13
2019-05-05T10:41:28.248Z,93.37
2019-05-05T10:42:28.141Z,93.84
2019-05-05T10:43:28.051Z,95.27
2019-05-05T10:44:27.957Z,95.17
2019-05-05T10:45:27.865Z,96.41
2019-05-05T10:46:27.786Z,96.22
2019-05-05T10:47:27.681Z,94.46
2019-05-05T10:48:27.583Z,96.17
2019-05-05T10:49:27.491Z,95.89
2019-05-05T10:50:27.396Z,94.27
2019-05-05T10:51:27.321Z,95.17
2019-05-05T10:52:27.212Z,94.79
2019-05-05T10:53:27.121Z,92.18
2019-05-05T10:54:40.519Z,91.03
2019-05-05T10:55:26.929Z,92.70
2019-05-05T10:56:26.852Z,93.23
2019-05-05T10:57:26.741Z,92.60
2019-05-05T10:58:26.645Z,91.60
2019-05-05T10:59:26.552Z,90.98
2019-05-05T11:00:26.459Z,90.45
2019-05-05T11:01:26.378Z,90.41
2019-05-05T11:02:26.269Z,89.12
2019-05-05T11:03:26.178Z,85.83
2019-05-05T11:04:26.083Z,84.01
2019-05-05T11:05:25.990Z,83.50
2019-05-05T11:06:25.915Z,82.92
2019-05-05T11:07:25.805Z,82.54
2019-05-05T11:08:25.714Z,82.26
2019-05-05T11:09:25.621Z,82.01
2019-05-05T11:10:25.527Z,81.06
2019-05-05T11:11:25.433Z,79.59
2019-05-05T11:12:25.358Z,78.92
2019-05-05T11:13:25.251Z,77.87
2019-05-05T11:14:25.157Z,77.93
2019-05-05T11:15:25.064Z,79.11
2019-05-05T11:16:24.974Z,79.46
2019-05-05T11:17:24.917Z,79.93
2019-05-05T11:18:24.788Z,82.50
2019-05-05T11:19:24.695Z,82.27
2019-05-05T11:20:24.828Z,81.85
2019-05-05T11:21:24.514Z,84.23
2019-05-05T11:22:24.436Z,85.85
2019-05-05T11:23:24.943Z,87.60
2019-05-05T11:24:24.239Z,87.84
2019-05-05T11:25:24.298Z,82.31
2019-05-05T11:26:24.675Z,82.45
2019-05-05T11:27:24.190Z,81.92
2019-05-05T11:28:23.972Z,81.25
2019-05-05T11:29:24.173Z,79.35
2019-05-05T11:30:26.766Z,79.25
2019-05-05T11:31:23.997Z,79.00
2019-05-05T11:32:24.493Z,79.96
2019-05-05T11:33:23.779Z,79.28
2019-05-05T11:34:24.671Z,81.29
2019-05-05T11:35:24.432Z,81.86
2019-05-05T11:36:24.008Z,80.11
2019-05-05T11:37:23.063Z,78.62
2019-05-05T11:38:24.694Z,81.63
2019-05-05T11:39:23.548Z,83.39
2019-05-05T11:40:22.776Z,80.30
2019-05-05T11:41:24.289Z,78.83
2019-05-05T11:42:23.893Z,79.44
2019-05-05T11:43:24.509Z,79.72
2019-05-05T11:44:24.235Z,79.49
2019-05-05T11:45:24.045Z,81.25
2019-05-05T11:46:24.540Z,79.82
2019-05-05T11:47:22.161Z,79.49
2019-05-05T11:48:23.992Z,79.68
2019-05-05T11:49:24.286Z,79.83
2019-05-05T11:50:23.758Z,82.03
2019-05-05T11:51:21.783Z,87.07
2019-05-05T11:52:21.707Z,87.74
2019-05-05T11:53:21.602Z,85.55
2019-05-05T11:54:21.510Z,85.32
2019-05-05T11:55:21.420Z,85.70
2019-05-05T11:56:21.439Z,87.27
2019-05-05T11:57:21.254Z,88.79
2019-05-05T11:58:21.146Z,88.60
2019-05-05T11:59:21.056Z,88.75
2019-05-05T12:00:20.962Z,90.18
2019-05-05T12:01:20.871Z,89.99
2019-05-05T12:02:20.795Z,92.08
2019-05-05T12:03:20.800Z,91.99
2019-05-05T12:04:20.598Z,93.23
2019-05-05T12:05:20.501Z,93.70
2019-05-05T12:06:20.408Z,93.13
2019-05-05T12:07:20.322Z,92.51
2019-05-05T12:08:20.245Z,91.08
2019-05-05T12:09:20.148Z,92.22
2019-05-05T12:10:20.147Z,93.46
2019-05-05T12:11:19.950Z,93.94
2019-05-05T12:12:19.854Z,93.46
2019-05-05T12:13:19.774Z,90.61
2019-05-05T12:14:19.665Z,89.18
2019-05-05T12:15:19.568Z,88.33
2019-05-05T12:16:19.474Z,88.33
2019-05-05T12:17:19.482Z,90.61
2019-05-05T12:18:19.301Z,90.42
2019-05-05T12:19:19.192Z,91.47
2019-05-05T12:20:19.098Z,91.75
2019-05-05T12:21:19.002Z,92.32
2019-05-05T12:22:18.907Z,93.04
2019-05-05T12:23:18.829Z,93.27
2019-05-05T12:24:18.826Z,94.22
2019-05-05T12:25:27.703Z,94.13
2019-05-05T12:26:18.527Z,93.94
2019-05-05T12:27:18.445Z,94.89
2019-05-05T12:28:18.355Z,93.70
2019-05-05T12:29:18.245Z,91.08
2019-05-05T12:30:18.275Z,89.42
2019-05-05T12:31:18.054Z,88.71
2019-05-05T12:32:17.961Z,87.61
2019-05-05T12:33:17.878Z,88.56
2019-05-05T12:34:17.770Z,89.61
2019-05-05T12:35:17.674Z,90.47
2019-05-05T12:36:17.582Z,91.61
2019-05-05T12:37:17.484Z,90.56
2019-05-05T12:38:17.404Z,89.89
2019-05-05T12:39:17.298Z,91.42
2019-05-05T12:40:17.200Z,91.42
2019-05-05T12:41:17.107Z,89.32
2019-05-05T12:42:17.011Z,90.08
2019-05-05T12:43:16.930Z,90.32
2019-05-05T12:44:16.822Z,91.08
2019-05-05T12:45:16.823Z,91.70
2019-05-05T12:46:16.629Z,88.41
2019-05-05T12:47:16.535Z,88.79
2019-05-05T12:48:16.457Z,87.69
2019-05-05T12:49:16.347Z,87.84
2019-05-05T12:50:16.250Z,87.74
2019-05-05T12:51:16.157Z,86.75